Main page
METAR-TAF:

METAR-TAF

Airports :

RAF Benson

Benson, England

latitude: 51-37N, longitude: 001-05W, elevation: 63 m

Current weather observation

The report was made 37 minutes ago, at 23:50 UTC
Wind 9 kt from the South/Southwest
Temperature 4°C
Humidity 81%
Pressure 1017 hPa
Visibility 10 km or more

METAR: EGUB 172350Z AUTO 21009KT 9999 // NCD 04/01 Q1017

Time: 00:27 (00:27 UTC)

Forecast

The report was made 10 hours and 49 minutes ago, at 13:38 UTC
Forecast valid from 17 at 15 UTC to 17 at 20 UTC
Wind 14 kt from the West/Southwest
Visibility 10 km or more
Few clouds at a height of 2200 ft
Temporary
from 17 at 15 UTC to 17 at 20 UTC
Wind 18 kt from the West/Southwest with gusts up to 28 kt
Probability 30% :
Temporary
from 17 at 15 UTC to 17 at 18 UTC
Visibility: 6000 m
Scattered clouds at a height of 2200 ft, Towering cumulus.
rain showers

TAF: EGUB 171338Z 1715/1720 24014KT 9999 FEW022 TEMPO 1715/1720 25018G28KT PROB30 TEMPO 1715/1718 6000 SHRA SCT022TCU

Weather observations and forecasts of more than 4000 airports (METAR and TAF reports).

The available stations are represented by yellow and red dots on the map.

Hover mouse over dot to see the name of the station.

Then click to see weather observations and forecasts.

To change the map : click on the green buttons with a black cross to zoom in, on the green button with a dash to zoom out, or on the green arrows for adjacent maps.


METAR-TAF: